Terminal Aerodrome Forecast
Issued by NWS Sioux Falls, SD

Home | Current Version | Previous Version | Graphics & Text | Print | Product List | Glossary Off
Versions: 1 2 3 4 5 6 7 8 9 10 11 12 13 14 15

000
FTUS43 KFSD 300749 AAA
TAFFSD
TAF AMD
KFSD 300749Z 3008/0106 07010KT P6SM SCT028 BKN200
     FM301400 07013G19KT P6SM -RA OVC020
     FM301600 06020G29KT 5SM -RA OVC010
     FM010100 04012KT 4SM -RA OVC020=

USA.gov is the U.S. government's official web portal to all federal, state and local government web resources and services.